sensor_id;sensor_type;location;lat;lon;timestamp;P1;durP1;ratioP1;P2;durP2;ratioP2
18172;SDS011;9211;48.818;9.312;2022-07-29T00:00:48;6.63;;;3.92;;
18172;SDS011;9211;48.818;9.312;2022-07-29T00:03:15;6.68;;;3.80;;
18172;SDS011;9211;48.818;9.312;2022-07-29T00:05:42;6.35;;;4.20;;
18172;SDS011;9211;48.818;9.312;2022-07-29T00:08:09;6.53;;;4.13;;
18172;SDS011;9211;48.818;9.312;2022-07-29T00:10:37;7.53;;;4.40;;
18172;SDS011;9211;48.818;9.312;2022-07-29T00:13:04;6.30;;;4.40;;
18172;SDS011;9211;48.818;9.312;2022-07-29T00:15:31;7.57;;;4.38;;
18172;SDS011;9211;48.818;9.312;2022-07-29T00:17:58;5.40;;;4.03;;
18172;SDS011;9211;48.818;9.312;2022-07-29T00:20:25;5.88;;;4.20;;
18172;SDS011;9211;48.818;9.312;2022-07-29T00:22:52;7.60;;;4.28;;
18172;SDS011;9211;48.818;9.312;2022-07-29T00:25:19;7.88;;;4.38;;
18172;SDS011;9211;48.818;9.312;2022-07-29T00:27:48;7.90;;;4.53;;
18172;SDS011;9211;48.818;9.312;2022-07-29T00:30:15;6.15;;;4.32;;
18172;SDS011;9211;48.818;9.312;2022-07-29T00:32:42;6.28;;;4.40;;
18172;SDS011;9211;48.818;9.312;2022-07-29T00:35:09;7.50;;;4.80;;
18172;SDS011;9211;48.818;9.312;2022-07-29T00:37:59;6.13;;;4.50;;
18172;SDS011;9211;48.818;9.312;2022-07-29T00:40:26;7.25;;;4.57;;
18172;SDS011;9211;48.818;9.312;2022-07-29T00:42:54;7.85;;;4.45;;
18172;SDS011;9211;48.818;9.312;2022-07-29T00:45:21;8.90;;;4.63;;
18172;SDS011;9211;48.818;9.312;2022-07-29T00:47:49;9.15;;;4.40;;
18172;SDS011;9211;48.818;9.312;2022-07-29T00:50:16;8.60;;;4.72;;
18172;SDS011;9211;48.818;9.312;2022-07-29T00:52:44;8.80;;;4.70;;
18172;SDS011;9211;48.818;9.312;2022-07-29T00:55:12;8.18;;;4.75;;
18172;SDS011;9211;48.818;9.312;2022-07-29T00:57:41;9.38;;;5.35;;
18172;SDS011;9211;48.818;9.312;2022-07-29T01:00:11;9.07;;;5.13;;
18172;SDS011;9211;48.818;9.312;2022-07-29T01:02:41;8.07;;;5.07;;
18172;SDS011;9211;48.818;9.312;2022-07-29T01:05:08;12.83;;;5.60;;
18172;SDS011;9211;48.818;9.312;2022-07-29T01:07:36;15.85;;;6.88;;
18172;SDS011;9211;48.818;9.312;2022-07-29T01:10:06;14.20;;;6.47;;
18172;SDS011;9211;48.818;9.312;2022-07-29T01:12:36;10.50;;;5.80;;
18172;SDS011;9211;48.818;9.312;2022-07-29T01:15:05;13.77;;;5.95;;
18172;SDS011;9211;48.818;9.312;2022-07-29T01:17:36;9.25;;;5.57;;
18172;SDS011;9211;48.818;9.312;2022-07-29T01:20:10;8.10;;;5.03;;
18172;SDS011;9211;48.818;9.312;2022-07-29T01:23:05;9.68;;;4.70;;
18172;SDS011;9211;48.818;9.312;2022-07-29T01:25:48;7.20;;;4.65;;
18172;SDS011;9211;48.818;9.312;2022-07-29T01:28:39;7.28;;;4.55;;
18172;SDS011;9211;48.818;9.312;2022-07-29T01:31:13;7.30;;;4.60;;
18172;SDS011;9211;48.818;9.312;2022-07-29T01:33:43;7.07;;;4.50;;
18172;SDS011;9211;48.818;9.312;2022-07-29T01:36:17;8.63;;;4.70;;
18172;SDS011;9211;48.818;9.312;2022-07-29T01:38:53;6.65;;;4.28;;
18172;SDS011;9211;48.818;9.312;2022-07-29T01:41:24;6.18;;;4.32;;
18172;SDS011;9211;48.818;9.312;2022-07-29T01:43:57;7.00;;;4.47;;
18172;SDS011;9211;48.818;9.312;2022-07-29T01:46:30;7.22;;;4.43;;
18172;SDS011;9211;48.818;9.312;2022-07-29T01:49:00;7.28;;;4.82;;
18172;SDS011;9211;48.818;9.312;2022-07-29T01:51:35;6.70;;;4.70;;
18172;SDS011;9211;48.818;9.312;2022-07-29T01:54:07;6.88;;;4.97;;
18172;SDS011;9211;48.818;9.312;2022-07-29T01:56:39;5.97;;;4.40;;
18172;SDS011;9211;48.818;9.312;2022-07-29T01:59:11;8.98;;;4.68;;
18172;SDS011;9211;48.818;9.312;2022-07-29T02:01:39;8.02;;;4.60;;
18172;SDS011;9211;48.818;9.312;2022-07-29T02:04:09;7.10;;;5.10;;
18172;SDS011;9211;48.818;9.312;2022-07-29T02:06:39;8.77;;;4.80;;
18172;SDS011;9211;48.818;9.312;2022-07-29T02:09:08;7.40;;;4.95;;
18172;SDS011;9211;48.818;9.312;2022-07-29T02:11:38;7.28;;;4.68;;
18172;SDS011;9211;48.818;9.312;2022-07-29T02:14:11;9.20;;;5.25;;
18172;SDS011;9211;48.818;9.312;2022-07-29T02:16:40;9.18;;;5.10;;
18172;SDS011;9211;48.818;9.312;2022-07-29T02:19:08;7.78;;;4.88;;
18172;SDS011;9211;48.818;9.312;2022-07-29T02:21:37;7.75;;;4.88;;
18172;SDS011;9211;48.818;9.312;2022-07-29T02:24:07;9.50;;;5.00;;
18172;SDS011;9211;48.818;9.312;2022-07-29T02:26:37;10.15;;;5.50;;
18172;SDS011;9211;48.818;9.312;2022-07-29T02:29:07;7.63;;;5.32;;
18172;SDS011;9211;48.818;9.312;2022-07-29T02:31:37;8.80;;;5.40;;
18172;SDS011;9211;48.818;9.312;2022-07-29T02:34:06;9.88;;;5.38;;
18172;SDS011;9211;48.818;9.312;2022-07-29T02:36:35;6.37;;;5.27;;
18172;SDS011;9211;48.818;9.312;2022-07-29T02:39:03;9.23;;;5.05;;
18172;SDS011;9211;48.818;9.312;2022-07-29T02:41:33;8.13;;;5.40;;
18172;SDS011;9211;48.818;9.312;2022-07-29T02:44:11;8.70;;;5.30;;
18172;SDS011;9211;48.818;9.312;2022-07-29T02:46:43;7.78;;;5.20;;
18172;SDS011;9211;48.818;9.312;2022-07-29T02:49:16;7.57;;;5.03;;
18172;SDS011;9211;48.818;9.312;2022-07-29T02:51:49;8.40;;;5.07;;
18172;SDS011;9211;48.818;9.312;2022-07-29T02:54:22;8.98;;;5.20;;
18172;SDS011;9211;48.818;9.312;2022-07-29T02:56:53;8.57;;;5.10;;
18172;SDS011;9211;48.818;9.312;2022-07-29T02:59:23;6.93;;;5.30;;
18172;SDS011;9211;48.818;9.312;2022-07-29T03:01:55;8.40;;;5.47;;
18172;SDS011;9211;48.818;9.312;2022-07-29T03:04:25;8.53;;;5.70;;
18172;SDS011;9211;48.818;9.312;2022-07-29T03:06:54;8.47;;;5.50;;
18172;SDS011;9211;48.818;9.312;2022-07-29T03:09:24;10.43;;;5.97;;
18172;SDS011;9211;48.818;9.312;2022-07-29T03:11:52;8.00;;;5.75;;
18172;SDS011;9211;48.818;9.312;2022-07-29T03:14:20;7.28;;;5.50;;
18172;SDS011;9211;48.818;9.312;2022-07-29T03:16:48;9.35;;;5.90;;
18172;SDS011;9211;48.818;9.312;2022-07-29T03:19:18;8.82;;;5.63;;
18172;SDS011;9211;48.818;9.312;2022-07-29T03:21:46;7.50;;;5.60;;
18172;SDS011;9211;48.818;9.312;2022-07-29T03:24:27;8.52;;;5.63;;
18172;SDS011;9211;48.818;9.312;2022-07-29T03:26:56;9.52;;;5.57;;
18172;SDS011;9211;48.818;9.312;2022-07-29T03:29:23;7.60;;;5.80;;
18172;SDS011;9211;48.818;9.312;2022-07-29T03:31:50;10.45;;;6.25;;
18172;SDS011;9211;48.818;9.312;2022-07-29T03:34:19;8.43;;;5.90;;
18172;SDS011;9211;48.818;9.312;2022-07-29T03:36:46;8.10;;;5.60;;
18172;SDS011;9211;48.818;9.312;2022-07-29T03:39:14;7.50;;;5.87;;
18172;SDS011;9211;48.818;9.312;2022-07-29T03:41:44;6.77;;;5.17;;
18172;SDS011;9211;48.818;9.312;2022-07-29T03:44:13;8.45;;;5.43;;
18172;SDS011;9211;48.818;9.312;2022-07-29T03:46:43;11.82;;;5.65;;
18172;SDS011;9211;48.818;9.312;2022-07-29T03:49:12;7.10;;;5.68;;
18172;SDS011;9211;48.818;9.312;2022-07-29T03:51:43;8.55;;;5.82;;
18172;SDS011;9211;48.818;9.312;2022-07-29T03:54:10;9.18;;;5.38;;
18172;SDS011;9211;48.818;9.312;2022-07-29T03:56:38;8.43;;;5.43;;
18172;SDS011;9211;48.818;9.312;2022-07-29T03:59:08;9.80;;;5.77;;
18172;SDS011;9211;48.818;9.312;2022-07-29T04:01:36;7.90;;;5.70;;
18172;SDS011;9211;48.818;9.312;2022-07-29T04:04:04;9.10;;;5.60;;
18172;SDS011;9211;48.818;9.312;2022-07-29T04:06:38;8.88;;;5.97;;
18172;SDS011;9211;48.818;9.312;2022-07-29T04:09:07;8.20;;;5.20;;
18172;SDS011;9211;48.818;9.312;2022-07-29T04:11:35;10.18;;;5.95;;
18172;SDS011;9211;48.818;9.312;2022-07-29T04:14:03;7.70;;;5.72;;
18172;SDS011;9211;48.818;9.312;2022-07-29T04:16:30;7.93;;;5.47;;
18172;SDS011;9211;48.818;9.312;2022-07-29T04:18:57;8.63;;;5.17;;
18172;SDS011;9211;48.818;9.312;2022-07-29T04:21:24;8.15;;;5.60;;
18172;SDS011;9211;48.818;9.312;2022-07-29T04:23:51;6.50;;;4.90;;
18172;SDS011;9211;48.818;9.312;2022-07-29T04:26:19;7.40;;;5.30;;
18172;SDS011;9211;48.818;9.312;2022-07-29T04:28:46;8.05;;;5.13;;
18172;SDS011;9211;48.818;9.312;2022-07-29T04:31:13;8.20;;;5.50;;
18172;SDS011;9211;48.818;9.312;2022-07-29T04:33:41;6.85;;;5.22;;
18172;SDS011;9211;48.818;9.312;2022-07-29T04:36:08;9.20;;;5.13;;
18172;SDS011;9211;48.818;9.312;2022-07-29T04:38:36;8.47;;;4.97;;
18172;SDS011;9211;48.818;9.312;2022-07-29T04:41:04;7.03;;;4.78;;
18172;SDS011;9211;48.818;9.312;2022-07-29T04:43:33;6.78;;;4.75;;
18172;SDS011;9211;48.818;9.312;2022-07-29T04:46:00;6.75;;;4.78;;
18172;SDS011;9211;48.818;9.312;2022-07-29T04:48:27;7.45;;;4.75;;
18172;SDS011;9211;48.818;9.312;2022-07-29T04:50:55;6.18;;;4.47;;
18172;SDS011;9211;48.818;9.312;2022-07-29T04:53:22;9.13;;;4.93;;
18172;SDS011;9211;48.818;9.312;2022-07-29T04:55:49;8.60;;;4.70;;
18172;SDS011;9211;48.818;9.312;2022-07-29T04:58:17;7.55;;;4.35;;
18172;SDS011;9211;48.818;9.312;2022-07-29T05:00:45;5.47;;;4.28;;
18172;SDS011;9211;48.818;9.312;2022-07-29T05:03:12;7.20;;;4.22;;
18172;SDS011;9211;48.818;9.312;2022-07-29T05:05:39;5.55;;;4.28;;
18172;SDS011;9211;48.818;9.312;2022-07-29T05:08:07;6.20;;;4.47;;
18172;SDS011;9211;48.818;9.312;2022-07-29T05:10:34;7.63;;;4.30;;
18172;SDS011;9211;48.818;9.312;2022-07-29T05:13:03;6.28;;;4.47;;
18172;SDS011;9211;48.818;9.312;2022-07-29T05:15:31;5.55;;;3.90;;
18172;SDS011;9211;48.818;9.312;2022-07-29T05:18:00;6.25;;;3.92;;
18172;SDS011;9211;48.818;9.312;2022-07-29T05:20:27;4.70;;;4.00;;
18172;SDS011;9211;48.818;9.312;2022-07-29T05:22:55;8.45;;;4.20;;
18172;SDS011;9211;48.818;9.312;2022-07-29T05:25:22;7.38;;;3.65;;
18172;SDS011;9211;48.818;9.312;2022-07-29T05:27:49;5.75;;;4.10;;
18172;SDS011;9211;48.818;9.312;2022-07-29T05:30:16;6.40;;;4.30;;
18172;SDS011;9211;48.818;9.312;2022-07-29T05:32:43;6.77;;;3.90;;
18172;SDS011;9211;48.818;9.312;2022-07-29T05:35:12;6.63;;;4.15;;
18172;SDS011;9211;48.818;9.312;2022-07-29T05:37:40;8.30;;;4.68;;
18172;SDS011;9211;48.818;9.312;2022-07-29T05:40:08;6.28;;;4.40;;
18172;SDS011;9211;48.818;9.312;2022-07-29T05:42:35;6.93;;;4.70;;
18172;SDS011;9211;48.818;9.312;2022-07-29T05:45:03;5.90;;;4.57;;
18172;SDS011;9211;48.818;9.312;2022-07-29T05:47:31;5.63;;;4.07;;
18172;SDS011;9211;48.818;9.312;2022-07-29T05:49:58;8.02;;;4.68;;
18172;SDS011;9211;48.818;9.312;2022-07-29T05:52:26;5.75;;;4.40;;
18172;SDS011;9211;48.818;9.312;2022-07-29T05:54:53;5.95;;;4.20;;
18172;SDS011;9211;48.818;9.312;2022-07-29T05:57:22;6.07;;;3.97;;
18172;SDS011;9211;48.818;9.312;2022-07-29T05:59:50;6.57;;;3.47;;
18172;SDS011;9211;48.818;9.312;2022-07-29T06:02:17;5.55;;;3.80;;
18172;SDS011;9211;48.818;9.312;2022-07-29T06:04:45;5.85;;;3.75;;
18172;SDS011;9211;48.818;9.312;2022-07-29T06:07:12;7.38;;;4.38;;
18172;SDS011;9211;48.818;9.312;2022-07-29T06:09:40;7.38;;;4.20;;
18172;SDS011;9211;48.818;9.312;2022-07-29T06:12:07;8.63;;;4.35;;
18172;SDS011;9211;48.818;9.312;2022-07-29T06:14:35;7.77;;;3.80;;
18172;SDS011;9211;48.818;9.312;2022-07-29T06:17:03;5.95;;;3.95;;
18172;SDS011;9211;48.818;9.312;2022-07-29T06:19:30;5.70;;;3.97;;
18172;SDS011;9211;48.818;9.312;2022-07-29T06:21:59;7.00;;;4.10;;
18172;SDS011;9211;48.818;9.312;2022-07-29T06:24:26;5.07;;;3.78;;
18172;SDS011;9211;48.818;9.312;2022-07-29T06:26:55;4.45;;;3.50;;
18172;SDS011;9211;48.818;9.312;2022-07-29T06:29:22;5.05;;;3.55;;
18172;SDS011;9211;48.818;9.312;2022-07-29T06:31:49;5.35;;;3.40;;
18172;SDS011;9211;48.818;9.312;2022-07-29T06:34:16;5.30;;;3.30;;
18172;SDS011;9211;48.818;9.312;2022-07-29T06:36:44;5.35;;;3.40;;
18172;SDS011;9211;48.818;9.312;2022-07-29T06:39:11;5.72;;;3.25;;
18172;SDS011;9211;48.818;9.312;2022-07-29T06:41:38;4.93;;;3.10;;
18172;SDS011;9211;48.818;9.312;2022-07-29T06:44:09;5.53;;;3.00;;
18172;SDS011;9211;48.818;9.312;2022-07-29T06:46:36;4.50;;;2.85;;
18172;SDS011;9211;48.818;9.312;2022-07-29T06:49:03;3.63;;;2.77;;
18172;SDS011;9211;48.818;9.312;2022-07-29T06:51:30;5.00;;;3.13;;
18172;SDS011;9211;48.818;9.312;2022-07-29T06:53:58;4.55;;;3.00;;
18172;SDS011;9211;48.818;9.312;2022-07-29T06:56:25;6.30;;;3.42;;
18172;SDS011;9211;48.818;9.312;2022-07-29T06:58:53;3.78;;;3.00;;
18172;SDS011;9211;48.818;9.312;2022-07-29T07:01:21;5.00;;;2.90;;
18172;SDS011;9211;48.818;9.312;2022-07-29T07:03:48;3.33;;;2.72;;
18172;SDS011;9211;48.818;9.312;2022-07-29T07:06:15;3.47;;;2.70;;
18172;SDS011;9211;48.818;9.312;2022-07-29T07:08:42;5.78;;;2.90;;
18172;SDS011;9211;48.818;9.312;2022-07-29T07:11:09;4.18;;;3.00;;
18172;SDS011;9211;48.818;9.312;2022-07-29T07:13:37;3.65;;;2.90;;
18172;SDS011;9211;48.818;9.312;2022-07-29T07:16:04;5.25;;;2.78;;
18172;SDS011;9211;48.818;9.312;2022-07-29T07:18:32;13.50;;;9.82;;
18172;SDS011;9211;48.818;9.312;2022-07-29T07:21:00;49.42;;;32.53;;
18172;SDS011;9211;48.818;9.312;2022-07-29T07:23:30;42.88;;;26.70;;
18172;SDS011;9211;48.818;9.312;2022-07-29T07:25:57;27.88;;;17.63;;
18172;SDS011;9211;48.818;9.312;2022-07-29T07:28:24;17.33;;;11.48;;
18172;SDS011;9211;48.818;9.312;2022-07-29T07:30:51;11.57;;;7.50;;
18172;SDS011;9211;48.818;9.312;2022-07-29T07:33:18;11.30;;;7.75;;
18172;SDS011;9211;48.818;9.312;2022-07-29T07:35:49;8.27;;;6.00;;
18172;SDS011;9211;48.818;9.312;2022-07-29T07:38:17;13.15;;;8.82;;
18172;SDS011;9211;48.818;9.312;2022-07-29T07:40:44;10.60;;;7.22;;
18172;SDS011;9211;48.818;9.312;2022-07-29T07:43:11;7.18;;;4.80;;
18172;SDS011;9211;48.818;9.312;2022-07-29T07:45:38;5.25;;;3.47;;
18172;SDS011;9211;48.818;9.312;2022-07-29T07:48:06;4.20;;;3.07;;
18172;SDS011;9211;48.818;9.312;2022-07-29T07:50:35;4.65;;;2.80;;
18172;SDS011;9211;48.818;9.312;2022-07-29T07:53:03;3.80;;;2.50;;
18172;SDS011;9211;48.818;9.312;2022-07-29T07:55:30;3.75;;;2.40;;
18172;SDS011;9211;48.818;9.312;2022-07-29T07:57:57;4.15;;;2.42;;
18172;SDS011;9211;48.818;9.312;2022-07-29T08:00:24;3.38;;;2.38;;
18172;SDS011;9211;48.818;9.312;2022-07-29T08:02:52;2.60;;;2.30;;
18172;SDS011;9211;48.818;9.312;2022-07-29T08:05:19;4.82;;;2.35;;
18172;SDS011;9211;48.818;9.312;2022-07-29T08:07:46;3.55;;;2.35;;
18172;SDS011;9211;48.818;9.312;2022-07-29T08:10:15;4.85;;;2.60;;
18172;SDS011;9211;48.818;9.312;2022-07-29T08:13:05;2.72;;;2.25;;
18172;SDS011;9211;48.818;9.312;2022-07-29T08:15:34;2.88;;;2.25;;
18172;SDS011;9211;48.818;9.312;2022-07-29T08:18:01;3.65;;;2.40;;
18172;SDS011;9211;48.818;9.312;2022-07-29T08:20:28;2.72;;;2.10;;
18172;SDS011;9211;48.818;9.312;2022-07-29T08:22:57;3.97;;;2.58;;
18172;SDS011;9211;48.818;9.312;2022-07-29T08:25:25;4.82;;;2.63;;
18172;SDS011;9211;48.818;9.312;2022-07-29T08:27:52;2.88;;;2.28;;
18172;SDS011;9211;48.818;9.312;2022-07-29T08:30:19;3.13;;;2.40;;
18172;SDS011;9211;48.818;9.312;2022-07-29T08:32:47;4.20;;;2.33;;
18172;SDS011;9211;48.818;9.312;2022-07-29T08:35:15;3.58;;;2.40;;
18172;SDS011;9211;48.818;9.312;2022-07-29T08:37:42;3.97;;;2.40;;
18172;SDS011;9211;48.818;9.312;2022-07-29T08:40:12;3.75;;;2.60;;
18172;SDS011;9211;48.818;9.312;2022-07-29T08:42:44;4.50;;;2.65;;
18172;SDS011;9211;48.818;9.312;2022-07-29T08:45:11;3.47;;;2.53;;
18172;SDS011;9211;48.818;9.312;2022-07-29T08:47:38;2.80;;;2.40;;
18172;SDS011;9211;48.818;9.312;2022-07-29T08:50:06;4.40;;;2.85;;
18172;SDS011;9211;48.818;9.312;2022-07-29T08:52:35;4.30;;;3.00;;
18172;SDS011;9211;48.818;9.312;2022-07-29T08:55:04;4.22;;;2.63;;
18172;SDS011;9211;48.818;9.312;2022-07-29T08:57:32;3.47;;;2.50;;
18172;SDS011;9211;48.818;9.312;2022-07-29T09:00:03;3.05;;;2.63;;
18172;SDS011;9211;48.818;9.312;2022-07-29T09:02:33;3.20;;;2.47;;
18172;SDS011;9211;48.818;9.312;2022-07-29T09:05:05;3.78;;;2.53;;
18172;SDS011;9211;48.818;9.312;2022-07-29T09:07:33;5.32;;;3.10;;
18172;SDS011;9211;48.818;9.312;2022-07-29T09:10:01;4.53;;;2.90;;
18172;SDS011;9211;48.818;9.312;2022-07-29T09:12:30;3.70;;;2.53;;
18172;SDS011;9211;48.818;9.312;2022-07-29T09:14:57;2.95;;;2.38;;
18172;SDS011;9211;48.818;9.312;2022-07-29T09:20:16;5.05;;;3.45;;
18172;SDS011;9211;48.818;9.312;2022-07-29T09:22:45;4.43;;;3.10;;
18172;SDS011;9211;48.818;9.312;2022-07-29T09:25:31;4.05;;;3.00;;
18172;SDS011;9211;48.818;9.312;2022-07-29T09:28:04;4.77;;;3.07;;
18172;SDS011;9211;48.818;9.312;2022-07-29T09:30:33;5.50;;;3.00;;
18172;SDS011;9211;48.818;9.312;2022-07-29T09:33:02;3.78;;;2.92;;
18172;SDS011;9211;48.818;9.312;2022-07-29T09:35:30;5.35;;;2.90;;
18172;SDS011;9211;48.818;9.312;2022-07-29T09:37:57;4.60;;;3.03;;
18172;SDS011;9211;48.818;9.312;2022-07-29T09:40:26;6.43;;;3.53;;
18172;SDS011;9211;48.818;9.312;2022-07-29T09:46:24;7.25;;;3.65;;
18172;SDS011;9211;48.818;9.312;2022-07-29T09:49:09;6.50;;;3.58;;
18172;SDS011;9211;48.818;9.312;2022-07-29T09:51:37;5.70;;;3.30;;
18172;SDS011;9211;48.818;9.312;2022-07-29T09:54:22;4.30;;;2.97;;
18172;SDS011;9211;48.818;9.312;2022-07-29T09:56:49;4.57;;;3.40;;
18172;SDS011;9211;48.818;9.312;2022-07-29T09:59:16;4.90;;;3.10;;
18172;SDS011;9211;48.818;9.312;2022-07-29T10:01:46;4.05;;;3.55;;
18172;SDS011;9211;48.818;9.312;2022-07-29T10:04:16;12.48;;;8.13;;
18172;SDS011;9211;48.818;9.312;2022-07-29T10:06:57;11.43;;;7.00;;
18172;SDS011;9211;48.818;9.312;2022-07-29T10:09:25;8.20;;;4.83;;
18172;SDS011;9211;48.818;9.312;2022-07-29T10:12:08;5.03;;;3.80;;
18172;SDS011;9211;48.818;9.312;2022-07-29T10:14:39;5.95;;;3.40;;
18172;SDS011;9211;48.818;9.312;2022-07-29T10:17:07;5.93;;;3.13;;
18172;SDS011;9211;48.818;9.312;2022-07-29T10:19:37;4.63;;;3.15;;
18172;SDS011;9211;48.818;9.312;2022-07-29T10:22:05;5.00;;;3.30;;
18172;SDS011;9211;48.818;9.312;2022-07-29T10:24:33;4.10;;;3.08;;
18172;SDS011;9211;48.818;9.312;2022-07-29T10:27:04;6.07;;;3.25;;
18172;SDS011;9211;48.818;9.312;2022-07-29T10:29:32;4.60;;;3.22;;
18172;SDS011;9211;48.818;9.312;2022-07-29T10:32:08;4.68;;;3.40;;
18172;SDS011;9211;48.818;9.312;2022-07-29T10:34:48;8.27;;;3.70;;
18172;SDS011;9211;48.818;9.312;2022-07-29T10:37:27;3.72;;;3.10;;
18172;SDS011;9211;48.818;9.312;2022-07-29T10:40:00;7.18;;;3.70;;
18172;SDS011;9211;48.818;9.312;2022-07-29T10:42:51;5.95;;;3.95;;
18172;SDS011;9211;48.818;9.312;2022-07-29T10:45:20;5.60;;;3.70;;
18172;SDS011;9211;48.818;9.312;2022-07-29T10:47:47;5.30;;;3.60;;
18172;SDS011;9211;48.818;9.312;2022-07-29T10:50:16;6.40;;;3.80;;
18172;SDS011;9211;48.818;9.312;2022-07-29T10:52:52;5.25;;;3.60;;
18172;SDS011;9211;48.818;9.312;2022-07-29T10:55:33;8.07;;;3.70;;
18172;SDS011;9211;48.818;9.312;2022-07-29T10:58:11;7.00;;;3.80;;
18172;SDS011;9211;48.818;9.312;2022-07-29T11:00:39;5.07;;;3.70;;
18172;SDS011;9211;48.818;9.312;2022-07-29T11:03:07;5.63;;;3.80;;
18172;SDS011;9211;48.818;9.312;2022-07-29T11:05:52;7.53;;;3.88;;
18172;SDS011;9211;48.818;9.312;2022-07-29T11:08:23;6.63;;;3.50;;
18172;SDS011;9211;48.818;9.312;2022-07-29T11:10:52;6.35;;;3.72;;
18172;SDS011;9211;48.818;9.312;2022-07-29T11:13:49;6.38;;;3.83;;
18172;SDS011;9211;48.818;9.312;2022-07-29T11:16:17;6.00;;;3.80;;
18172;SDS011;9211;48.818;9.312;2022-07-29T11:21:49;8.38;;;4.50;;
18172;SDS011;9211;48.818;9.312;2022-07-29T11:24:18;7.43;;;4.80;;
18172;SDS011;9211;48.818;9.312;2022-07-29T11:29:39;10.48;;;6.10;;
18172;SDS011;9211;48.818;9.312;2022-07-29T11:32:15;12.82;;;5.97;;
18172;SDS011;9211;48.818;9.312;2022-07-29T11:34:46;13.45;;;5.97;;
18172;SDS011;9211;48.818;9.312;2022-07-29T11:37:20;13.20;;;6.13;;
18172;SDS011;9211;48.818;9.312;2022-07-29T11:40:11;14.00;;;6.28;;
18172;SDS011;9211;48.818;9.312;2022-07-29T11:42:48;12.13;;;6.30;;
18172;SDS011;9211;48.818;9.312;2022-07-29T11:45:16;13.00;;;6.85;;
18172;SDS011;9211;48.818;9.312;2022-07-29T11:47:50;11.52;;;5.90;;
18172;SDS011;9211;48.818;9.312;2022-07-29T11:50:29;11.13;;;5.17;;
18172;SDS011;9211;48.818;9.312;2022-07-29T11:52:59;9.93;;;5.25;;
18172;SDS011;9211;48.818;9.312;2022-07-29T11:55:27;11.05;;;4.40;;
18172;SDS011;9211;48.818;9.312;2022-07-29T11:57:54;6.72;;;4.10;;
18172;SDS011;9211;48.818;9.312;2022-07-29T12:00:23;8.48;;;4.55;;
18172;SDS011;9211;48.818;9.312;2022-07-29T12:02:52;10.13;;;4.70;;
18172;SDS011;9211;48.818;9.312;2022-07-29T12:05:19;11.88;;;4.90;;
18172;SDS011;9211;48.818;9.312;2022-07-29T12:07:47;10.87;;;5.20;;
18172;SDS011;9211;48.818;9.312;2022-07-29T12:10:16;9.45;;;4.63;;
18172;SDS011;9211;48.818;9.312;2022-07-29T12:12:43;8.10;;;3.85;;
18172;SDS011;9211;48.818;9.312;2022-07-29T12:15:19;7.35;;;3.20;;
18172;SDS011;9211;48.818;9.312;2022-07-29T12:17:46;7.80;;;3.47;;
18172;SDS011;9211;48.818;9.312;2022-07-29T12:20:21;6.72;;;3.10;;
18172;SDS011;9211;48.818;9.312;2022-07-29T12:22:50;6.70;;;2.72;;
18172;SDS011;9211;48.818;9.312;2022-07-29T12:25:20;6.30;;;2.97;;
18172;SDS011;9211;48.818;9.312;2022-07-29T12:27:58;5.85;;;2.88;;
18172;SDS011;9211;48.818;9.312;2022-07-29T12:30:34;8.25;;;3.10;;
18172;SDS011;9211;48.818;9.312;2022-07-29T12:33:13;4.82;;;2.42;;
18172;SDS011;9211;48.818;9.312;2022-07-29T12:35:43;4.47;;;2.50;;
18172;SDS011;9211;48.818;9.312;2022-07-29T12:38:12;5.78;;;2.70;;
18172;SDS011;9211;48.818;9.312;2022-07-29T12:40:41;6.60;;;2.50;;
18172;SDS011;9211;48.818;9.312;2022-07-29T12:43:10;5.05;;;2.42;;
18172;SDS011;9211;48.818;9.312;2022-07-29T12:45:39;6.45;;;2.70;;
18172;SDS011;9211;48.818;9.312;2022-07-29T12:48:08;5.57;;;2.90;;
18172;SDS011;9211;48.818;9.312;2022-07-29T12:50:36;5.00;;;2.45;;
18172;SDS011;9211;48.818;9.312;2022-07-29T12:53:10;3.05;;;2.38;;
18172;SDS011;9211;48.818;9.312;2022-07-29T12:55:40;3.42;;;1.98;;
18172;SDS011;9211;48.818;9.312;2022-07-29T12:58:08;2.80;;;1.90;;
18172;SDS011;9211;48.818;9.312;2022-07-29T13:00:35;3.50;;;2.00;;
18172;SDS011;9211;48.818;9.312;2022-07-29T13:03:02;3.80;;;1.85;;
18172;SDS011;9211;48.818;9.312;2022-07-29T13:05:40;3.55;;;1.90;;
18172;SDS011;9211;48.818;9.312;2022-07-29T13:08:09;3.10;;;1.73;;
18172;SDS011;9211;48.818;9.312;2022-07-29T13:10:41;3.50;;;2.00;;
18172;SDS011;9211;48.818;9.312;2022-07-29T13:13:09;3.75;;;2.13;;
18172;SDS011;9211;48.818;9.312;2022-07-29T13:15:39;2.65;;;1.90;;
18172;SDS011;9211;48.818;9.312;2022-07-29T13:20:53;3.65;;;2.30;;
18172;SDS011;9211;48.818;9.312;2022-07-29T13:23:20;2.50;;;2.10;;
18172;SDS011;9211;48.818;9.312;2022-07-29T13:25:49;3.67;;;2.50;;
18172;SDS011;9211;48.818;9.312;2022-07-29T13:28:16;3.72;;;2.28;;
18172;SDS011;9211;48.818;9.312;2022-07-29T13:30:43;3.30;;;2.50;;
18172;SDS011;9211;48.818;9.312;2022-07-29T13:33:10;5.82;;;2.97;;
18172;SDS011;9211;48.818;9.312;2022-07-29T13:35:37;5.20;;;2.80;;
18172;SDS011;9211;48.818;9.312;2022-07-29T13:38:04;3.60;;;2.40;;
18172;SDS011;9211;48.818;9.312;2022-07-29T13:40:32;5.50;;;2.63;;
18172;SDS011;9211;48.818;9.312;2022-07-29T13:43:01;4.43;;;2.42;;
18172;SDS011;9211;48.818;9.312;2022-07-29T13:45:28;5.13;;;2.80;;
18172;SDS011;9211;48.818;9.312;2022-07-29T13:47:55;3.97;;;2.70;;
18172;SDS011;9211;48.818;9.312;2022-07-29T13:50:22;7.70;;;3.10;;
18172;SDS011;9211;48.818;9.312;2022-07-29T13:52:49;5.10;;;3.13;;
18172;SDS011;9211;48.818;9.312;2022-07-29T13:55:16;6.28;;;3.38;;
18172;SDS011;9211;48.818;9.312;2022-07-29T13:57:43;7.60;;;3.63;;
18172;SDS011;9211;48.818;9.312;2022-07-29T14:00:12;6.82;;;3.45;;
18172;SDS011;9211;48.818;9.312;2022-07-29T14:02:41;9.02;;;3.80;;
18172;SDS011;9211;48.818;9.312;2022-07-29T14:05:08;8.70;;;3.70;;
18172;SDS011;9211;48.818;9.312;2022-07-29T14:07:35;7.32;;;3.70;;
18172;SDS011;9211;48.818;9.312;2022-07-29T14:10:04;7.53;;;3.80;;
18172;SDS011;9211;48.818;9.312;2022-07-29T14:12:32;7.22;;;4.10;;
18172;SDS011;9211;48.818;9.312;2022-07-29T14:14:59;7.50;;;4.15;;
18172;SDS011;9211;48.818;9.312;2022-07-29T14:17:27;8.13;;;3.67;;
18172;SDS011;9211;48.818;9.312;2022-07-29T14:19:54;6.55;;;3.90;;
18172;SDS011;9211;48.818;9.312;2022-07-29T14:22:21;6.75;;;4.10;;
18172;SDS011;9211;48.818;9.312;2022-07-29T14:24:50;4.68;;;3.78;;
18172;SDS011;9211;48.818;9.312;2022-07-29T14:27:17;5.97;;;4.20;;
18172;SDS011;9211;48.818;9.312;2022-07-29T14:29:44;6.00;;;4.05;;
18172;SDS011;9211;48.818;9.312;2022-07-29T14:32:11;6.53;;;3.85;;
18172;SDS011;9211;48.818;9.312;2022-07-29T14:34:41;10.35;;;4.68;;
18172;SDS011;9211;48.818;9.312;2022-07-29T14:37:08;6.57;;;4.22;;
18172;SDS011;9211;48.818;9.312;2022-07-29T14:39:35;9.82;;;4.53;;
18172;SDS011;9211;48.818;9.312;2022-07-29T14:42:03;7.17;;;4.30;;
18172;SDS011;9211;48.818;9.312;2022-07-29T14:44:30;8.30;;;4.30;;
18172;SDS011;9211;48.818;9.312;2022-07-29T14:46:57;7.67;;;4.17;;
18172;SDS011;9211;48.818;9.312;2022-07-29T14:49:25;6.93;;;4.40;;
18172;SDS011;9211;48.818;9.312;2022-07-29T14:51:53;6.45;;;4.20;;
18172;SDS011;9211;48.818;9.312;2022-07-29T14:54:20;10.93;;;4.45;;
18172;SDS011;9211;48.818;9.312;2022-07-29T14:56:47;6.70;;;3.88;;
18172;SDS011;9211;48.818;9.312;2022-07-29T14:59:16;8.23;;;4.40;;
18172;SDS011;9211;48.818;9.312;2022-07-29T15:01:44;5.70;;;4.10;;
18172;SDS011;9211;48.818;9.312;2022-07-29T15:04:11;6.03;;;4.15;;
18172;SDS011;9211;48.818;9.312;2022-07-29T15:06:38;6.97;;;4.20;;
18172;SDS011;9211;48.818;9.312;2022-07-29T15:09:06;10.57;;;4.55;;
18172;SDS011;9211;48.818;9.312;2022-07-29T15:11:33;8.35;;;4.40;;
18172;SDS011;9211;48.818;9.312;2022-07-29T15:14:00;6.05;;;4.30;;
18172;SDS011;9211;48.818;9.312;2022-07-29T15:16:27;6.00;;;4.07;;
18172;SDS011;9211;48.818;9.312;2022-07-29T15:18:54;6.57;;;4.33;;
18172;SDS011;9211;48.818;9.312;2022-07-29T15:21:22;5.53;;;3.97;;
18172;SDS011;9211;48.818;9.312;2022-07-29T15:23:49;6.47;;;4.07;;
18172;SDS011;9211;48.818;9.312;2022-07-29T15:26:18;7.65;;;4.00;;
18172;SDS011;9211;48.818;9.312;2022-07-29T15:28:45;6.13;;;4.07;;